CheckWX is a tool to help pilots better visualize weather data.  It is not intended as a substitute for an official pre-flight weather briefing.

20:34:28 UTC

EGPM METAR
Scatsta Airport
Shetland Islands, United Kingdom
Current

14 mins ago

EGPM 182020Z AUTO 27017KT 9999 BKN014/// BKN026/// 07/06 Q0989
Observed
Feb-18 @ 20:20 UTC
Wind
  • 270° at 17 KTS
Visibility
10,000+ meters
Flight Rules
MVFR
Cloud Levels
  • Broken at 1,400' AGL
  • Broken at 2,600' AGL
Temperature
C / 45°F
Dewpoint
C / 43°F
Humidity
93%
Altimeter
29.2" Hg
Pressure
988.92 hPa
Previous

44 mins ago

EGPM 181950Z AUTO 26022KT 9999 FEW002/// BKN014/// 07/06 Q0989 RERA
Observed
Feb-18 @ 19:50 UTC
Wind
  • 260° at 22 KTS
Visibility
10,000+ meters
Flight Rules
MVFR
Cloud Levels
  • Few at 200' AGL
  • Broken at 1,400' AGL
Temperature
C / 45°F
Dewpoint
C / 43°F
Humidity
93%
Altimeter
29.2" Hg
Pressure
988.92 hPa
Previous

1 hour ago

EGPM 181920Z AUTO 26026KT 9999 BKN009/// BKN021/// 07/06 Q0988
Observed
Feb-18 @ 19:20 UTC
Wind
  • 260° at 26 KTS
Visibility
10,000+ meters
Flight Rules
IFR
Cloud Levels
  • Broken at 900' AGL
  • Broken at 2,100' AGL
Temperature
C / 45°F
Dewpoint
C / 43°F
Humidity
93%
Altimeter
29.17" Hg
Pressure
987.92 hPa